createdAt,value
2022-08-23T00:00:12.028Z,1.80
2022-08-23T00:02:42.398Z,1.83
2022-08-23T00:05:12.443Z,2.20
2022-08-23T00:07:42.074Z,1.70
2022-08-23T00:10:11.275Z,1.88
2022-08-23T00:12:41.325Z,2.13
2022-08-23T00:15:11.361Z,2.05
2022-08-23T00:17:42.195Z,1.88
2022-08-23T00:20:12.990Z,2.10
2022-08-23T00:22:41.661Z,2.03
2022-08-23T00:25:12.314Z,1.80
2022-08-23T00:27:42.276Z,1.88
2022-08-23T00:30:12.441Z,1.80
2022-08-23T00:32:42.257Z,1.73
2022-08-23T00:35:11.559Z,1.75
2022-08-23T00:37:40.552Z,1.95
2022-08-23T00:40:11.206Z,1.52
2022-08-23T00:43:00.110Z,1.98
2022-08-23T00:45:51.486Z,1.52
2022-08-23T00:48:20.084Z,2.05
2022-08-23T00:51:00.944Z,2.63
2022-08-23T00:53:30.619Z,3.58
2022-08-23T00:56:01.175Z,3.03
2022-08-23T00:58:30.289Z,2.47
2022-08-23T01:01:01.471Z,2.55
2022-08-23T01:03:38.737Z,2.50
2022-08-23T01:06:10.821Z,2.10
2022-08-23T01:08:40.446Z,2.20
2022-08-23T01:11:11.138Z,2.15
2022-08-23T01:13:44.803Z,2.38
2022-08-23T01:16:17.286Z,2.20
2022-08-23T01:18:47.782Z,2.00
2022-08-23T01:21:19.922Z,2.20
2022-08-23T01:23:51.467Z,1.70
2022-08-23T01:26:21.894Z,2.42
2022-08-23T01:28:51.718Z,2.13
2022-08-23T01:31:20.727Z,1.90
2022-08-23T01:33:55.691Z,1.98
2022-08-23T01:36:24.495Z,1.95
2022-08-23T01:38:55.631Z,2.38
2022-08-23T01:41:24.698Z,1.80
2022-08-23T01:43:54.318Z,2.20
2022-08-23T01:46:27.003Z,1.95
2022-08-23T01:48:57.231Z,2.10
2022-08-23T01:51:27.882Z,2.28
2022-08-23T01:53:58.138Z,1.90
2022-08-23T01:56:38.675Z,1.95
2022-08-23T01:59:09.528Z,2.00
2022-08-23T02:01:43.195Z,1.83
2022-08-23T02:04:12.011Z,2.13
2022-08-23T02:06:40.707Z,2.25
2022-08-23T02:09:17.282Z,1.80
2022-08-23T02:11:47.810Z,1.90
2022-08-23T02:14:18.579Z,1.80
2022-08-23T02:17:02.921Z,2.00
2022-08-23T02:19:34.542Z,1.85
2022-08-23T02:22:04.122Z,2.20
2022-08-23T02:24:34.472Z,2.20
2022-08-23T02:27:06.102Z,1.90
2022-08-23T02:29:39.930Z,2.00
2022-08-23T02:32:12.381Z,2.03
2022-08-23T02:34:41.554Z,1.98
2022-08-23T02:37:10.791Z,1.98
2022-08-23T02:39:42.400Z,3.53
2022-08-23T02:42:12.042Z,2.05
2022-08-23T02:44:43.775Z,1.70
2022-08-23T02:47:12.458Z,2.40
2022-08-23T02:49:46.149Z,1.95
2022-08-23T02:52:15.165Z,2.10
2022-08-23T02:54:46.155Z,2.10
2022-08-23T02:57:14.712Z,2.10
2022-08-23T02:59:43.355Z,2.00
2022-08-23T03:02:12.242Z,2.30
2022-08-23T03:04:43.977Z,2.30
2022-08-23T03:07:12.725Z,1.90
2022-08-23T03:09:41.762Z,1.90
2022-08-23T03:12:12.074Z,2.40
2022-08-23T03:14:45.230Z,2.00
2022-08-23T03:17:15.036Z,1.85
2022-08-23T03:19:43.975Z,1.85
2022-08-23T03:22:12.593Z,2.25
2022-08-23T03:24:41.396Z,1.85
2022-08-23T03:27:12.406Z,2.03
2022-08-23T03:29:42.783Z,1.70
2022-08-23T03:32:11.479Z,2.05
2022-08-23T03:34:44.146Z,2.10
2022-08-23T03:37:12.807Z,2.03
2022-08-23T03:39:41.542Z,2.00
2022-08-23T03:42:12.127Z,2.00
2022-08-23T03:44:40.822Z,1.98
2022-08-23T03:47:09.809Z,1.95
2022-08-23T03:49:38.781Z,1.85
2022-08-23T03:52:07.947Z,2.30
2022-08-23T03:54:37.251Z,2.25
2022-08-23T03:57:07.503Z,1.75
2022-08-23T03:59:39.418Z,2.28
2022-08-23T04:02:11.030Z,1.70
2022-08-23T04:04:40.535Z,2.15
2022-08-23T04:07:27.990Z,2.05
2022-08-23T04:09:59.195Z,2.10
2022-08-23T04:12:32.743Z,2.20
2022-08-23T04:15:03.597Z,2.10
2022-08-23T04:17:36.382Z,2.10
2022-08-23T04:20:05.565Z,2.25
2022-08-23T04:22:36.538Z,2.13
2022-08-23T04:25:05.381Z,1.90
2022-08-23T04:27:54.408Z,2.20
2022-08-23T04:30:24.690Z,2.10
2022-08-23T04:32:54.325Z,1.90
2022-08-23T04:35:25.439Z,1.85
2022-08-23T04:37:54.041Z,2.22
2022-08-23T04:40:40.277Z,2.10
2022-08-23T04:43:10.374Z,1.90
2022-08-23T04:45:40.885Z,2.08
2022-08-23T04:48:15.538Z,2.17
2022-08-23T04:50:48.383Z,2.05
2022-08-23T04:53:20.834Z,2.38
2022-08-23T04:56:23.379Z,2.35
2022-08-23T04:58:53.043Z,2.35
2022-08-23T05:01:25.553Z,2.28
2022-08-23T05:03:55.947Z,2.47
2022-08-23T05:06:26.902Z,2.10
2022-08-23T05:08:55.483Z,2.50
2022-08-23T05:11:24.078Z,2.42
2022-08-23T05:13:52.902Z,2.22
2022-08-23T05:16:23.569Z,2.35
2022-08-23T05:19:02.845Z,2.03
2022-08-23T05:21:33.826Z,2.50
2022-08-23T05:24:03.737Z,2.60
2022-08-23T05:26:33.179Z,2.35
2022-08-23T05:29:01.860Z,2.60
2022-08-23T05:31:38.422Z,2.60
2022-08-23T05:34:07.245Z,2.20
2022-08-23T05:36:55.095Z,1.95
2022-08-23T05:39:36.439Z,2.45
2022-08-23T05:42:12.026Z,2.10
2022-08-23T05:44:40.808Z,2.25
2022-08-23T05:47:15.145Z,2.20
2022-08-23T05:50:03.430Z,2.20
2022-08-23T05:52:36.079Z,2.40
2022-08-23T05:55:05.043Z,2.00
2022-08-23T05:57:42.666Z,2.42
2022-08-23T06:00:13.602Z,2.80
2022-08-23T06:02:49.495Z,2.80
2022-08-23T06:05:21.110Z,2.10
2022-08-23T06:07:51.822Z,2.58
2022-08-23T06:10:22.811Z,2.42
2022-08-23T06:13:04.263Z,2.30
2022-08-23T06:15:32.860Z,2.65
2022-08-23T06:18:02.998Z,2.35
2022-08-23T06:20:32.495Z,2.38
2022-08-23T06:23:08.018Z,2.45
2022-08-23T06:25:38.118Z,2.67
2022-08-23T06:28:17.663Z,2.50
2022-08-23T06:30:48.149Z,2.50
2022-08-23T06:33:31.070Z,2.60
2022-08-23T06:36:18.525Z,2.55
2022-08-23T06:39:03.632Z,2.60
2022-08-23T06:42:05.463Z,2.85
2022-08-23T06:44:45.161Z,3.00
2022-08-23T06:47:19.863Z,2.63
2022-08-23T06:49:57.878Z,3.00
2022-08-23T06:53:07.112Z,2.80
2022-08-23T06:55:51.157Z,2.25
2022-08-23T06:58:28.161Z,2.97
2022-08-23T07:01:44.274Z,2.20
2022-08-23T07:04:18.599Z,3.20
2022-08-23T07:07:11.976Z,2.10
2022-08-23T07:09:41.512Z,2.85
2022-08-23T07:12:11.001Z,2.17
2022-08-23T07:14:42.842Z,2.10
2022-08-23T07:17:12.483Z,2.58
2022-08-23T07:19:41.591Z,2.83
2022-08-23T07:22:12.021Z,2.22
2022-08-23T07:24:41.837Z,2.88
2022-08-23T07:27:12.352Z,2.67
2022-08-23T07:29:48.518Z,2.70
2022-08-23T07:32:18.799Z,2.72
2022-08-23T07:34:47.907Z,2.75
2022-08-23T07:37:18.846Z,2.60
2022-08-23T07:39:47.582Z,2.85
2022-08-23T07:42:22.944Z,2.50
2022-08-23T07:44:54.174Z,2.45
2022-08-23T07:47:24.735Z,3.15
2022-08-23T07:49:56.644Z,2.78
2022-08-23T07:52:26.589Z,2.85
2022-08-23T07:54:55.690Z,3.10
2022-08-23T07:57:43.818Z,3.00
2022-08-23T08:00:35.546Z,3.20
2022-08-23T08:03:32.533Z,2.92
2022-08-23T08:06:12.768Z,3.13
2022-08-23T08:08:43.388Z,3.10
2022-08-23T08:11:13.471Z,3.17
2022-08-23T08:13:43.477Z,2.60
2022-08-23T08:16:12.732Z,2.88
2022-08-23T08:18:42.826Z,2.70
2022-08-23T08:21:30.400Z,2.83
2022-08-23T08:24:23.228Z,2.60
2022-08-23T08:27:05.538Z,2.33
2022-08-23T08:29:34.878Z,2.40
2022-08-23T08:32:03.568Z,2.35
2022-08-23T08:34:32.279Z,2.70
2022-08-23T08:37:01.119Z,2.22
2022-08-23T08:39:32.290Z,2.90
2022-08-23T08:42:07.187Z,2.10
2022-08-23T08:44:42.246Z,2.10
2022-08-23T08:47:14.190Z,2.00
2022-08-23T08:49:46.062Z,2.10
2022-08-23T08:52:18.708Z,2.20
2022-08-23T08:54:53.250Z,2.25
2022-08-23T08:57:27.793Z,2.22
2022-08-23T09:00:00.244Z,2.30
2022-08-23T09:02:33.328Z,2.50
2022-08-23T09:05:08.817Z,2.03
2022-08-23T09:07:40.351Z,2.20
2022-08-23T09:10:22.302Z,1.92
2022-08-23T09:13:20.651Z,2.15
2022-08-23T09:15:54.859Z,1.80
2022-08-23T09:18:24.379Z,2.22
2022-08-23T09:20:55.245Z,1.60
2022-08-23T09:23:25.439Z,1.90
2022-08-23T09:26:03.545Z,1.65
2022-08-23T09:28:36.812Z,1.65
2022-08-23T09:31:08.239Z,1.85
2022-08-23T09:33:39.667Z,1.58
2022-08-23T09:36:16.610Z,1.70
2022-08-23T09:38:55.285Z,1.95
2022-08-23T09:41:28.915Z,1.60
2022-08-23T09:44:02.289Z,1.60
2022-08-23T09:46:32.448Z,2.00
2022-08-23T09:49:02.022Z,1.80
2022-08-23T09:51:37.611Z,1.90
2022-08-23T09:54:12.914Z,1.77
2022-08-23T09:56:45.260Z,1.40
2022-08-23T09:59:30.131Z,1.50
2022-08-23T10:02:06.312Z,1.60
2022-08-23T10:04:41.723Z,1.45
2022-08-23T10:07:26.056Z,1.55
2022-08-23T10:09:56.938Z,1.55
2022-08-23T10:12:27.158Z,1.50
2022-08-23T10:14:56.655Z,1.27
2022-08-23T10:17:34.042Z,1.38
2022-08-23T10:20:10.972Z,1.55
2022-08-23T10:22:43.106Z,1.40
2022-08-23T10:25:26.707Z,1.45
2022-08-23T10:28:36.876Z,1.38
2022-08-23T10:31:13.531Z,1.45
2022-08-23T10:33:45.480Z,1.50
2022-08-23T10:36:16.917Z,1.77
2022-08-23T10:38:47.112Z,1.17
2022-08-23T10:41:33.721Z,1.40
2022-08-23T10:44:21.588Z,1.25
2022-08-23T10:46:52.262Z,1.42
2022-08-23T10:49:21.310Z,1.85
2022-08-23T10:51:52.146Z,1.67
2022-08-23T10:54:34.646Z,1.73
2022-08-23T10:57:05.380Z,1.52
2022-08-23T10:59:37.015Z,1.30
2022-08-23T11:02:09.652Z,1.20
2022-08-23T11:04:49.531Z,1.40
2022-08-23T11:07:28.622Z,1.10
2022-08-23T11:10:09.945Z,1.40
2022-08-23T11:12:55.396Z,1.70
2022-08-23T11:15:29.609Z,1.50
2022-08-23T11:18:00.266Z,1.60
2022-08-23T11:20:48.803Z,1.90
2022-08-23T11:23:36.914Z,1.63
2022-08-23T11:26:06.306Z,1.45
2022-08-23T11:28:40.598Z,1.35
2022-08-23T11:31:28.350Z,1.45
2022-08-23T11:34:02.042Z,1.70
2022-08-23T11:36:31.732Z,1.58
2022-08-23T11:39:11.469Z,1.25
2022-08-23T11:41:54.955Z,1.50
2022-08-23T11:44:28.722Z,1.23
2022-08-23T11:47:01.990Z,1.15
2022-08-23T11:49:49.810Z,1.17
2022-08-23T11:52:26.679Z,1.38
2022-08-23T11:55:06.726Z,1.27
2022-08-23T11:57:45.995Z,1.30
2022-08-23T12:00:22.729Z,1.27
2022-08-23T12:03:06.043Z,1.50
2022-08-23T12:06:04.815Z,1.33
2022-08-23T12:08:46.433Z,1.70
2022-08-23T12:11:15.641Z,1.40
2022-08-23T12:14:01.930Z,1.50
2022-08-23T12:16:32.908Z,1.63
2022-08-23T12:19:04.805Z,1.52
2022-08-23T12:21:34.898Z,1.50
2022-08-23T12:24:05.267Z,1.50
2022-08-23T12:26:41.057Z,1.33
2022-08-23T12:29:18.773Z,1.20
2022-08-23T12:31:51.434Z,1.27
2022-08-23T12:34:24.189Z,1.17
2022-08-23T12:37:00.975Z,1.20
2022-08-23T12:39:33.293Z,1.50
2022-08-23T12:42:06.903Z,1.52
2022-08-23T12:44:35.729Z,1.42
2022-08-23T12:47:11.633Z,1.35
2022-08-23T12:49:42.260Z,1.27
2022-08-23T12:52:12.197Z,1.42
2022-08-23T12:54:42.643Z,1.42
2022-08-23T12:57:15.866Z,1.20
2022-08-23T12:59:47.876Z,1.02
2022-08-23T13:02:20.175Z,1.42
2022-08-23T13:04:50.164Z,1.33
2022-08-23T13:07:21.530Z,1.40
2022-08-23T13:09:53.460Z,1.65
2022-08-23T13:12:24.457Z,1.35
2022-08-23T13:14:54.991Z,1.27
2022-08-23T13:17:32.818Z,1.70
2022-08-23T13:20:21.905Z,1.30
2022-08-23T13:22:58.059Z,1.30
2022-08-23T13:25:29.534Z,1.40
2022-08-23T13:28:01.542Z,1.48
2022-08-23T13:30:32.213Z,1.40
2022-08-23T13:33:20.021Z,1.30
2022-08-23T13:35:50.609Z,1.27
2022-08-23T13:38:22.698Z,1.48
2022-08-23T13:40:56.082Z,1.38
2022-08-23T13:43:27.730Z,1.38
2022-08-23T13:45:57.421Z,1.20
2022-08-23T13:48:27.772Z,1.15
2022-08-23T13:51:17.742Z,1.58
2022-08-23T13:53:46.575Z,1.70
2022-08-23T13:56:16.197Z,1.50
2022-08-23T13:58:44.959Z,1.10
2022-08-23T14:01:19.917Z,1.40
2022-08-23T14:03:48.632Z,1.25
2022-08-23T14:06:18.553Z,1.30
2022-08-23T14:08:48.299Z,1.40
2022-08-23T14:11:17.334Z,1.40
2022-08-23T14:13:47.070Z,1.20
2022-08-23T14:16:34.157Z,1.38
2022-08-23T14:20:31.388Z,1.20
2022-08-23T14:21:53.997Z,1.30
2022-08-23T14:24:22.586Z,1.50
2022-08-23T14:26:52.419Z,1.05
2022-08-23T14:29:22.496Z,1.27
2022-08-23T14:31:51.574Z,1.42
2022-08-23T14:34:20.275Z,1.30
2022-08-23T14:39:38.992Z,1.45
2022-08-23T14:42:08.076Z,1.50
2022-08-23T14:44:36.651Z,1.50
2022-08-23T14:47:05.802Z,1.50
2022-08-23T14:49:34.508Z,1.50
2022-08-23T14:52:03.260Z,1.50
2022-08-23T14:54:32.297Z,1.55
2022-08-23T14:57:02.234Z,1.45
2022-08-23T14:59:30.809Z,1.33
2022-08-23T15:01:59.619Z,1.20
2022-08-23T15:04:30.412Z,1.33
2022-08-23T15:07:19.714Z,1.50
2022-08-23T15:09:49.148Z,1.65
2022-08-23T15:15:12.149Z,1.50
2022-08-23T15:17:46.840Z,1.40
2022-08-23T15:20:15.401Z,1.70
2022-08-23T15:22:45.060Z,1.50
2022-08-23T15:25:24.210Z,1.65
2022-08-23T15:27:54.318Z,1.55
2022-08-23T15:30:23.553Z,1.55
2022-08-23T15:32:56.774Z,1.50
2022-08-23T15:35:26.048Z,1.60
2022-08-23T15:37:55.956Z,1.50
2022-08-23T15:40:25.696Z,1.58
2022-08-23T15:42:55.888Z,1.77
2022-08-23T15:45:24.893Z,1.40
2022-08-23T15:47:54.254Z,1.63
2022-08-23T15:50:24.130Z,1.10
2022-08-23T15:52:52.690Z,1.67
2022-08-23T15:55:21.309Z,1.45
2022-08-23T15:57:51.569Z,1.20
2022-08-23T16:00:23.511Z,1.17
2022-08-23T16:03:19.583Z,1.85
2022-08-23T16:05:42.132Z,1.58
2022-08-23T16:08:14.160Z,1.45
2022-08-23T16:10:42.688Z,1.50
2022-08-23T16:13:11.214Z,1.40
2022-08-23T16:15:41.753Z,1.83
2022-08-23T16:18:10.466Z,1.75
2022-08-23T16:20:39.165Z,1.33
2022-08-23T16:23:07.958Z,1.52
2022-08-23T16:25:36.505Z,1.45
2022-08-23T16:28:05.579Z,1.30
2022-08-23T16:30:35.114Z,1.60
2022-08-23T16:33:05.302Z,1.38
2022-08-23T16:35:33.902Z,1.60
2022-08-23T16:38:02.505Z,1.70
2022-08-23T16:40:31.071Z,1.65
2022-08-23T16:43:00.345Z,1.50
2022-08-23T16:45:28.990Z,1.48
2022-08-23T16:47:57.551Z,1.40
2022-08-23T16:50:27.577Z,1.38
2022-08-23T16:52:56.206Z,1.60
2022-08-23T16:55:24.915Z,1.20
2022-08-23T16:57:53.513Z,1.40
2022-08-23T17:00:22.083Z,1.70
2022-08-23T17:02:50.791Z,1.40
2022-08-23T17:05:20.186Z,1.45
2022-08-23T17:07:50.089Z,1.60
2022-08-23T17:10:19.528Z,1.60
2022-08-23T17:12:50.257Z,1.67
2022-08-23T17:15:20.803Z,1.60
2022-08-23T17:17:49.449Z,1.42
2022-08-23T17:20:18.658Z,1.42
2022-08-23T17:22:47.350Z,1.48
2022-08-23T17:25:17.577Z,1.48
2022-08-23T17:27:46.574Z,1.40
2022-08-23T17:30:16.666Z,1.42
2022-08-23T17:32:47.544Z,1.48
2022-08-23T17:35:17.638Z,1.48
2022-08-23T17:37:46.678Z,1.45
2022-08-23T17:40:21.421Z,1.17
2022-08-23T17:42:50.568Z,1.50
2022-08-23T17:45:19.571Z,1.45
2022-08-23T17:47:48.707Z,1.30
2022-08-23T17:50:18.189Z,1.52
2022-08-23T17:52:47.348Z,1.60
2022-08-23T17:55:18.425Z,1.50
2022-08-23T17:57:48.305Z,1.60
2022-08-23T18:00:18.828Z,1.40
2022-08-23T18:02:47.416Z,1.75
2022-08-23T18:05:16.815Z,1.55
2022-08-23T18:07:45.392Z,1.73
2022-08-23T18:10:14.634Z,1.80
2022-08-23T18:12:44.597Z,1.80
2022-08-23T18:15:13.411Z,1.40
2022-08-23T18:17:42.662Z,1.63
2022-08-23T18:20:11.873Z,1.65
2022-08-23T18:22:40.479Z,2.10
2022-08-23T18:25:10.176Z,2.05
2022-08-23T18:27:56.733Z,2.20
2022-08-23T18:30:27.137Z,1.90
2022-08-23T18:32:55.761Z,2.05
2022-08-23T18:35:25.859Z,1.90
2022-08-23T18:37:54.466Z,2.13
2022-08-23T18:40:23.176Z,2.55
2022-08-23T18:42:51.946Z,2.58
2022-08-23T18:45:20.524Z,2.80
2022-08-23T18:47:52.855Z,2.38
2022-08-23T18:50:21.382Z,2.72
2022-08-23T18:52:49.958Z,2.90
2022-08-23T18:55:20.152Z,2.58
2022-08-23T18:57:48.719Z,2.88
2022-08-23T19:00:17.337Z,2.55
2022-08-23T19:02:46.227Z,2.85
2022-08-23T19:05:16.094Z,2.35
2022-08-23T19:07:44.710Z,2.53
2022-08-23T19:10:20.131Z,2.47
2022-08-23T19:12:54.039Z,2.55
2022-08-23T19:15:33.949Z,2.35
2022-08-23T19:18:02.583Z,1.80
2022-08-23T19:20:32.465Z,2.20
2022-08-23T19:23:01.263Z,2.08
2022-08-23T19:25:31.677Z,2.10
2022-08-23T19:28:00.274Z,2.10
2022-08-23T19:30:28.940Z,1.90
2022-08-23T19:32:57.549Z,2.10
2022-08-23T19:35:26.066Z,2.40
2022-08-23T19:37:56.053Z,1.70
2022-08-23T19:40:24.652Z,2.03
2022-08-23T19:42:53.275Z,2.00
2022-08-23T19:45:22.102Z,1.98
2022-08-23T19:47:50.618Z,1.70
2022-08-23T19:50:24.129Z,2.05
2022-08-23T19:52:52.922Z,1.98
2022-08-23T19:55:23.901Z,2.20
2022-08-23T19:57:55.340Z,2.35
2022-08-23T20:00:24.009Z,2.33
2022-08-23T20:02:52.530Z,2.53
2022-08-23T20:05:22.368Z,2.45
2022-08-23T20:07:51.047Z,2.40
2022-08-23T20:10:19.635Z,2.80
2022-08-23T20:12:49.560Z,2.53
2022-08-23T20:15:18.261Z,2.50
2022-08-23T20:17:46.894Z,2.45
2022-08-23T20:20:15.541Z,2.40
2022-08-23T20:23:02.095Z,2.47
2022-08-23T20:25:31.402Z,2.17
2022-08-23T20:28:05.030Z,1.73
2022-08-23T20:30:33.651Z,2.00
2022-08-23T20:33:02.549Z,2.10
2022-08-23T20:35:31.112Z,1.95
2022-08-23T20:37:59.907Z,2.17
2022-08-23T20:40:28.481Z,2.25
2022-08-23T20:42:57.102Z,2.25
2022-08-23T20:45:27.104Z,1.95
2022-08-23T20:47:55.605Z,1.70
2022-08-23T20:50:25.254Z,2.25
2022-08-23T20:52:55.477Z,2.20
2022-08-23T20:55:24.134Z,2.40
2022-08-23T20:57:52.680Z,2.80
2022-08-23T21:00:21.292Z,2.30
2022-08-23T21:02:51.237Z,2.67
2022-08-23T21:05:19.952Z,2.42
2022-08-23T21:07:48.545Z,2.55
2022-08-23T21:10:17.053Z,2.70
2022-08-23T21:12:45.587Z,2.20
2022-08-23T21:15:14.117Z,2.30
2022-08-23T21:17:42.773Z,2.67
2022-08-23T21:20:16.996Z,2.70
2022-08-23T21:22:45.548Z,2.63
2022-08-23T21:25:14.063Z,2.35
2022-08-23T21:27:42.577Z,2.60
2022-08-23T21:30:11.786Z,2.53
2022-08-23T21:32:40.341Z,2.40
2022-08-23T21:35:09.439Z,2.03
2022-08-23T21:37:39.358Z,2.83
2022-08-23T21:40:08.404Z,2.55
2022-08-23T21:42:37.350Z,2.83
2022-08-23T21:45:06.314Z,2.45
2022-08-23T21:47:34.908Z,2.20
2022-08-23T21:50:03.486Z,2.80
2022-08-23T21:52:32.061Z,2.28
2022-08-23T21:55:01.979Z,2.50
2022-08-23T21:57:31.322Z,2.55
2022-08-23T22:00:00.661Z,2.50
2022-08-23T22:02:29.251Z,2.13
2022-08-23T22:04:57.815Z,2.03
2022-08-23T22:07:26.387Z,2.30
2022-08-23T22:09:54.967Z,2.15
2022-08-23T22:12:25.303Z,2.20
2022-08-23T22:14:53.895Z,2.33
2022-08-23T22:17:22.527Z,2.55
2022-08-23T22:19:51.591Z,2.63
2022-08-23T22:22:20.131Z,2.40
2022-08-23T22:24:48.833Z,2.13
2022-08-23T22:27:17.438Z,2.50
2022-08-23T22:29:47.873Z,2.28
2022-08-23T22:32:16.530Z,2.65
2022-08-23T22:34:45.071Z,2.40
2022-08-23T22:37:13.711Z,2.13
2022-08-23T22:39:42.417Z,2.00
2022-08-23T22:42:11.225Z,2.50
2022-08-23T22:44:39.853Z,2.55
2022-08-23T22:47:09.829Z,2.50
2022-08-23T22:49:38.394Z,2.92
2022-08-23T22:52:06.945Z,2.28
2022-08-23T22:54:35.461Z,2.90
2022-08-23T22:57:04.094Z,2.42
2022-08-23T22:59:33.006Z,2.72
2022-08-23T23:02:03.385Z,2.58
2022-08-23T23:04:34.563Z,2.70
2022-08-23T23:07:03.670Z,2.08
2022-08-23T23:09:32.494Z,2.50
2022-08-23T23:12:01.246Z,2.50
2022-08-23T23:14:29.867Z,2.63
2022-08-23T23:16:58.632Z,2.15
2022-08-23T23:19:45.792Z,2.50
2022-08-23T23:22:16.619Z,2.55
2022-08-23T23:24:45.381Z,2.38
2022-08-23T23:27:13.933Z,2.60
2022-08-23T23:29:43.100Z,2.13
2022-08-23T23:32:11.642Z,2.22
2022-08-23T23:34:40.206Z,2.33
2022-08-23T23:37:08.734Z,2.53
2022-08-23T23:39:38.668Z,2.30
2022-08-23T23:42:07.415Z,2.53
2022-08-23T23:44:36.009Z,2.30
2022-08-23T23:47:04.634Z,2.28
2022-08-23T23:49:33.779Z,2.20
2022-08-23T23:52:03.544Z,2.13
2022-08-23T23:54:33.758Z,2.65
2022-08-23T23:57:03.895Z,2.30
2022-08-23T23:59:32.497Z,2.38
